Time;durP1;ratioP1;P1;durP2;ratioP2;P2;SDS_P1;SDS_P2;PMS_P1;PMS_P2;Temp;Humidity;BMP_temperature;BMP_pressure;BME280_temperature;BME280_humidity;BME280_pressure;Samples;Min_cycle;Max_cycle;Signal;HPM_P1;HPM_P2
2021/11/16 06:35:20;;;;;;;0.00;0.00;;;2.70;58.40;;;;;;5069316;27;19925;-76
2021/11/16 06:37:47;;;;;;;0.00;0.00;;;3.10;57.90;;;;;;5070304;28;20347;-77
2021/11/16 06:40:15;;;;;;;0.10;0.10;;;3.10;58.00;;;;;;5069287;28;20111;-76
2021/11/16 06:42:40;;;;;;;0.05;0.05;;;3.10;58.00;;;;;;5069982;28;20067;-77
2021/11/16 06:45:07;;;;;;;0.00;0.00;;;3.20;58.00;;;;;;5070161;28;20048;-76
2021/11/16 06:47:32;;;;;;;0.10;0.10;;;3.30;58.00;;;;;;5070019;28;20417;-76
2021/11/16 06:49:59;;;;;;;0.30;0.30;;;3.50;57.80;;;;;;5069980;28;20104;-75
2021/11/16 06:52:27;;;;;;;0.20;0.20;;;3.60;57.60;;;;;;5070015;28;20040;-76
2021/11/16 06:54:53;;;;;;;0.13;0.13;;;3.90;57.20;;;;;;5069971;28;20141;-76
2021/11/16 06:57:19;;;;;;;0.17;0.17;;;4.00;57.00;;;;;;5070137;28;20021;-76
2021/11/16 06:59:44;;;;;;;0.20;0.20;;;4.20;56.80;;;;;;5070375;28;20071;-76
2021/11/16 07:02:10;;;;;;;0.10;0.10;;;4.30;56.60;;;;;;5069803;28;20025;-76
2021/11/16 07:04:41;;;;;;;0.15;0.15;;;4.60;56.40;;;;;;5070298;28;20093;-76
2021/11/16 07:07:07;;;;;;;0.00;0.00;;;4.80;55.80;;;;;;5070024;28;20031;-76
2021/11/16 07:09:36;;;;;;;0.10;0.10;;;5.00;55.40;;;;;;5070121;28;20025;-78
2021/11/16 07:12:10;;;;;;;0.00;0.00;;;5.10;54.70;;;;;;5069771;28;20449;-76
2021/11/16 07:14:38;;;;;;;0.00;0.00;;;5.10;54.30;;;;;;5069811;28;20028;-77
2021/11/16 07:17:07;;;;;;;0.10;0.10;;;5.20;54.00;;;;;;5068182;28;20033;-76
2021/11/16 07:19:42;;;;;;;0.10;0.10;;;5.40;53.50;;;;;;5061767;28;20017;-76
2021/11/16 07:22:31;;;;;;;0.10;0.10;;;5.50;53.40;;;;;;5049800;28;20104;-75
2021/11/16 07:25:08;;;;;;;0.10;0.10;;;5.60;53.10;;;;;;5024135;28;20557;-75
2021/11/16 07:27:37;;;;;;;0.05;0.05;;;5.80;52.50;;;;;;5028833;28;20026;-76
2021/11/16 07:30:08;;;;;;;0.10;0.10;;;5.90;52.30;;;;;;5029814;28;20022;-76
2021/11/16 07:32:52;;;;;;;0.10;0.10;;;6.20;52.20;;;;;;5029646;28;20065;-76
2021/11/16 07:35:23;;;;;;;0.10;0.00;;;6.50;52.00;;;;;;5021136;28;20042;-76
2021/11/16 07:37:53;;;;;;;0.00;0.00;;;6.90;51.70;;;;;;5016176;28;20033;-76
2021/11/16 07:40:21;;;;;;;0.00;0.00;;;7.20;51.40;;;;;;5014960;28;20026;-77
2021/11/16 07:42:59;;;;;;;0.00;0.00;;;7.70;51.30;;;;;;5013272;28;20042;-77
2021/11/16 07:45:30;;;;;;;0.00;0.00;;;8.30;51.30;;;;;;5016082;28;20468;-76
2021/11/16 07:48:00;;;;;;;0.00;0.00;;;9.00;50.90;;;;;;5016364;28;20038;-77
2021/11/16 07:50:29;;;;;;;0.00;0.00;;;9.80;50.00;;;;;;5015708;28;20495;-76
2021/11/16 07:53:06;;;;;;;0.10;0.10;;;10.60;49.20;;;;;;5015954;28;20034;-77
2021/11/16 07:55:31;;;;;;;0.00;0.00;;;11.30;48.10;;;;;;5015885;28;20021;-77
2021/11/16 07:58:03;;;;;;;0.00;0.00;;;12.00;46.30;;;;;;5015646;28;20487;-76
2021/11/16 08:00:29;;;;;;;0.00;0.00;;;12.60;45.20;;;;;;5016268;28;20116;-77
2021/11/16 08:03:05;;;;;;;0.00;0.00;;;13.00;43.50;;;;;;5015865;28;20120;-79
2021/11/16 08:11:35;;;;;;;0.00;0.00;;;14.40;41.20;;;;;;5024870;28;20040;-76
2021/11/16 08:14:13;;;;;;;0.00;0.00;;;15.00;40.00;;;;;;5035257;28;20475;-77
2021/11/16 08:16:48;;;;;;;0.00;0.00;;;15.50;39.30;;;;;;5027457;28;20353;-76
2021/11/16 08:19:19;;;;;;;0.00;0.00;;;16.20;38.40;;;;;;5023400;28;20057;-76
2021/11/16 08:21:46;;;;;;;0.00;0.00;;;16.60;37.50;;;;;;5023091;28;20430;-77
2021/11/16 08:24:14;;;;;;;0.00;0.00;;;16.90;36.50;;;;;;5024969;28;20086;-76
2021/11/16 08:26:47;;;;;;;0.00;0.00;;;17.00;35.00;;;;;;5022337;28;20026;-77
2021/11/16 08:29:16;;;;;;;0.00;0.00;;;16.90;34.50;;;;;;5023260;28;20521;-76
2021/11/16 08:32:00;;;;;;;0.00;0.00;;;16.90;34.30;;;;;;5023380;28;20013;-76
2021/11/16 08:34:29;;;;;;;0.00;0.00;;;17.00;33.70;;;;;;5024111;28;20061;-76
2021/11/16 08:36:55;;;;;;;0.00;0.00;;;17.10;33.50;;;;;;5024125;28;20668;-78
2021/11/16 08:39:41;;;;;;;0.00;0.00;;;17.00;33.30;;;;;;5023786;28;20075;-77
2021/11/16 08:42:15;;;;;;;0.00;0.00;;;17.10;33.10;;;;;;5024016;28;20041;-77
2021/11/16 08:44:54;;;;;;;0.00;0.00;;;17.30;33.10;;;;;;5023787;28;20030;-78
2021/11/16 08:47:25;;;;;;;0.00;0.00;;;17.60;32.90;;;;;;5021281;28;20036;-77
2021/11/16 08:49:51;;;;;;;0.00;0.00;;;18.10;32.50;;;;;;5024529;28;20018;-78
2021/11/16 08:52:17;;;;;;;0.00;0.00;;;18.50;32.10;;;;;;5021583;28;20348;-77
2021/11/16 08:54:55;;;;;;;0.00;0.00;;;18.80;31.60;;;;;;5024067;28;20485;-77
2021/11/16 08:57:23;;;;;;;0.00;0.00;;;19.20;30.90;;;;;;5026598;28;20087;-77
2021/11/16 08:59:49;;;;;;;0.00;0.00;;;19.80;31.60;;;;;;5021939;28;20026;-77
2021/11/16 09:02:17;;;;;;;0.00;0.00;;;20.30;30.40;;;;;;5014875;28;20022;-77
2021/11/16 09:04:43;;;;;;;0.05;0.00;;;20.50;29.90;;;;;;5014744;28;20034;-77
2021/11/16 09:07:24;;;;;;;0.00;0.00;;;20.70;29.80;;;;;;5014698;28;20114;-77
2021/11/16 09:09:56;;;;;;;0.00;0.00;;;20.80;29.20;;;;;;5023385;28;20127;-76
2021/11/16 09:12:51;;;;;;;0.00;0.00;;;21.10;29.20;;;;;;5014739;28;20022;-77
2021/11/16 09:15:29;;;;;;;0.00;0.00;;;21.30;28.90;;;;;;5017396;28;20037;-77
2021/11/16 09:24:39;;;;;;;0.00;0.00;;;21.90;28.30;;;;;;5033585;28;20095;-77
2021/11/16 09:29:31;;;;;;;0.00;0.00;;;22.30;28.30;;;;;;5034278;28;20025;-77
2021/11/16 09:32:05;;;;;;;0.00;0.00;;;22.60;28.10;;;;;;5033504;28;20087;-76
2021/11/16 09:34:33;;;;;;;0.00;0.00;;;22.60;27.80;;;;;;5033732;28;20049;-76
2021/11/16 09:37:05;;;;;;;0.00;0.00;;;22.90;27.80;;;;;;5033913;28;20112;-77
2021/11/16 09:39:44;;;;;;;0.00;0.00;;;23.20;27.60;;;;;;5033617;28;20033;-76
2021/11/16 09:42:14;;;;;;;0.00;0.00;;;23.40;27.40;;;;;;5033755;28;20029;-77
2021/11/16 09:44:48;;;;;;;0.00;0.00;;;23.70;27.30;;;;;;5033589;28;20080;-76
2021/11/16 09:47:39;;;;;;;0.00;0.00;;;23.90;26.90;;;;;;5033339;28;20025;-76
2021/11/16 09:50:09;;;;;;;0.00;0.00;;;23.50;26.70;;;;;;5030734;28;20037;-76
2021/11/16 09:52:38;;;;;;;0.00;0.00;;;23.40;26.90;;;;;;5033805;28;20025;-76
2021/11/16 09:55:15;;;;;;;0.00;0.00;;;23.40;26.90;;;;;;5033750;28;20454;-76
2021/11/16 09:57:46;;;;;;;0.00;0.00;;;23.10;26.60;;;;;;5032353;28;20095;-76
2021/11/16 10:00:36;;;;;;;0.00;0.00;;;23.10;26.90;;;;;;5033427;28;20036;-76
2021/11/16 10:03:08;;;;;;;0.00;0.00;;;23.20;26.80;;;;;;5013272;28;20038;-77
2021/11/16 10:05:43;;;;;;;0.00;0.00;;;23.40;26.80;;;;;;5019605;28;20468;-78
2021/11/16 10:08:10;;;;;;;0.00;0.00;;;23.50;26.70;;;;;;5033039;28;20033;-76
2021/11/16 10:10:39;;;;;;;0.00;0.00;;;23.70;26.70;;;;;;5033415;28;20159;-75
2021/11/16 10:13:14;;;;;;;0.00;0.00;;;24.10;26.60;;;;;;5033436;28;20383;-77
2021/11/16 10:15:44;;;;;;;0.00;0.00;;;24.50;26.30;;;;;;5016161;28;20033;-77
2021/11/16 10:18:11;;;;;;;0.00;0.00;;;24.60;26.10;;;;;;5033309;28;20033;-77
2021/11/16 10:20:39;;;;;;;0.00;0.00;;;24.60;26.00;;;;;;5033497;28;20048;-76
2021/11/16 10:23:08;;;;;;;0.00;0.00;;;24.50;26.50;;;;;;5033171;28;20459;-76
2021/11/16 10:25:39;;;;;;;0.00;0.00;;;24.50;25.90;;;;;;5032963;28;20425;-76
2021/11/16 10:28:10;;;;;;;0.00;0.00;;;24.70;25.90;;;;;;5033269;28;20070;-76
2021/11/16 10:30:37;;;;;;;0.00;0.00;;;24.90;25.80;;;;;;5033522;28;20056;-76
2021/11/16 10:33:17;;;;;;;0.00;0.00;;;25.30;25.90;;;;;;5025016;28;20040;-76
2021/11/16 10:36:03;;;;;;;0.00;0.00;;;25.60;25.60;;;;;;5029818;28;20068;-77
2021/11/16 10:38:34;;;;;;;0.00;0.00;;;25.60;25.40;;;;;;5031456;28;20033;-76
2021/11/16 10:41:06;;;;;;;0.00;0.00;;;25.80;25.50;;;;;;5030486;28;20100;-77
2021/11/16 10:43:37;;;;;;;0.00;0.00;;;26.00;25.40;;;;;;5032650;28;20069;-78
2021/11/16 10:46:05;;;;;;;0.00;0.00;;;26.20;25.30;;;;;;5031436;28;20485;-77
2021/11/16 10:48:32;;;;;;;0.00;0.00;;;26.40;25.40;;;;;;5031418;28;20021;-77
2021/11/16 10:50:58;;;;;;;0.00;0.00;;;26.60;25.30;;;;;;5033135;28;20095;-77
2021/11/16 10:53:26;;;;;;;0.00;0.00;;;26.60;25.20;;;;;;5031738;28;20037;-77
2021/11/16 10:55:55;;;;;;;0.00;0.00;;;26.70;25.70;;;;;;5032945;28;20038;-75
2021/11/16 10:58:29;;;;;;;0.00;0.00;;;26.90;25.10;;;;;;5032955;28;20026;-77
2021/11/16 11:01:04;;;;;;;0.00;0.00;;;27.00;25.10;;;;;;5032381;28;20061;-76
2021/11/16 11:03:31;;;;;;;0.00;0.00;;;26.90;24.90;;;;;;5031874;28;20033;-77
2021/11/16 11:06:07;;;;;;;0.00;0.00;;;26.90;24.90;;;;;;5033031;28;20029;-76
2021/11/16 11:08:41;;;;;;;0.00;0.00;;;27.00;24.90;;;;;;5032646;28;20083;-77
2021/11/16 11:11:29;;;;;;;0.00;0.00;;;27.30;24.90;;;;;;5035488;28;20025;-77
2021/11/16 11:14:00;;;;;;;0.00;0.00;;;27.40;24.80;;;;;;5015657;28;20517;-77
2021/11/16 11:16:28;;;;;;;0.00;0.00;;;27.60;25.00;;;;;;5036392;28;20100;-78
2021/11/16 11:18:55;;;;;;;0.00;0.00;;;27.80;24.70;;;;;;5035444;28;20125;-78
2021/11/16 11:21:31;;;;;;;0.00;0.00;;;27.80;24.60;;;;;;5035541;28;20348;-77
2021/11/16 11:24:00;;;;;;;0.00;0.00;;;27.70;24.50;;;;;;5033700;28;20073;-77
2021/11/16 11:26:44;;;;;;;0.00;0.00;;;27.60;24.60;;;;;;5033583;28;20418;-77
2021/11/16 11:29:24;;;;;;;0.00;0.00;;;27.60;24.50;;;;;;5033653;28;20101;-77
2021/11/16 11:32:03;;;;;;;0.00;0.00;;;27.70;24.60;;;;;;5033104;28;20048;-78
2021/11/16 11:34:59;;;;;;;0.00;0.00;;;27.50;24.50;;;;;;5036149;28;20046;-77
2021/11/16 11:37:29;;;;;;;0.00;0.00;;;27.20;24.50;;;;;;5033434;28;20184;-76
2021/11/16 11:40:04;;;;;;;0.00;0.00;;;27.10;24.60;;;;;;5034777;28;20022;-77
2021/11/16 11:42:33;;;;;;;0.00;0.00;;;27.30;24.60;;;;;;5036121;28;20419;-77
2021/11/16 11:45:09;;;;;;;0.00;0.00;;;27.60;24.70;;;;;;5035322;28;20475;-77
2021/11/16 11:47:38;;;;;;;0.00;0.00;;;27.70;24.50;;;;;;5035809;28;20057;-77
2021/11/16 11:50:25;;;;;;;0.00;0.00;;;27.80;24.50;;;;;;5025552;28;20041;-78
2021/11/16 11:52:52;;;;;;;0.00;0.00;;;27.60;24.40;;;;;;5015435;28;20534;-77
2021/11/16 11:55:19;;;;;;;0.00;0.00;;;27.30;24.50;;;;;;5014864;28;20452;-78
2021/11/16 11:57:45;;;;;;;0.00;0.00;;;26.90;24.40;;;;;;5015977;28;20041;-78
2021/11/16 12:00:12;;;;;;;0.00;0.00;;;26.80;24.60;;;;;;5015882;28;20022;-75
2021/11/16 12:02:38;;;;;;;0.00;0.00;;;26.60;24.50;;;;;;5015615;28;20357;-75
2021/11/16 12:05:05;;;;;;;0.00;0.00;;;26.50;24.50;;;;;;5015834;28;20036;-75
2021/11/16 12:07:31;;;;;;;0.00;0.00;;;26.50;24.60;;;;;;5015888;28;20113;-78
2021/11/16 12:09:57;;;;;;;0.00;0.00;;;26.70;24.70;;;;;;5035240;28;20383;-76
2021/11/16 12:12:24;;;;;;;0.00;0.00;;;26.80;24.70;;;;;;5035421;28;20489;-77
2021/11/16 12:15:13;;;;;;;0.00;0.00;;;27.00;24.60;;;;;;5034008;28;20033;-77
2021/11/16 12:17:51;;;;;;;0.00;0.00;;;26.80;24.50;;;;;;5030133;28;20042;-77
2021/11/16 12:20:33;;;;;;;0.00;0.00;;;26.70;24.40;;;;;;5035361;28;20033;-79
2021/11/16 12:22:59;;;;;;;0.00;0.00;;;26.50;24.50;;;;;;5035110;28;20045;-76
2021/11/16 12:25:25;;;;;;;0.05;0.00;;;26.50;24.60;;;;;;5034184;28;20390;-77
2021/11/16 12:27:51;;;;;;;0.00;0.00;;;26.50;24.70;;;;;;5034314;28;20056;-76
2021/11/16 12:30:21;;;;;;;0.00;0.00;;;26.40;24.70;;;;;;5032160;28;20072;-76
2021/11/16 12:32:50;;;;;;;0.00;0.00;;;26.30;24.60;;;;;;5030527;28;20475;-76
2021/11/16 12:35:21;;;;;;;0.00;0.00;;;26.30;24.70;;;;;;5033649;28;20049;-77
2021/11/16 12:37:53;;;;;;;0.00;0.00;;;26.30;24.80;;;;;;5031879;28;20037;-76
2021/11/16 12:40:24;;;;;;;0.00;0.00;;;26.20;24.80;;;;;;5034387;28;20025;-76
2021/11/16 12:43:10;;;;;;;0.00;0.00;;;26.20;24.80;;;;;;5033405;28;20112;-77
2021/11/16 12:45:42;;;;;;;0.00;0.00;;;25.90;24.70;;;;;;5032792;28;20018;-77
2021/11/16 12:48:08;;;;;;;0.00;0.00;;;25.70;24.80;;;;;;5030303;28;20108;-76
2021/11/16 12:50:36;;;;;;;0.00;0.00;;;25.50;24.90;;;;;;5034140;28;20025;-75
2021/11/16 12:53:02;;;;;;;0.10;0.00;;;25.30;25.00;;;;;;5033379;28;20021;-77
2021/11/16 12:55:35;;;;;;;0.00;0.00;;;25.10;25.10;;;;;;5034181;28;20025;-79
2021/11/16 12:58:24;;;;;;;0.00;0.00;;;25.00;25.10;;;;;;5033044;28;20371;-77
2021/11/16 13:00:52;;;;;;;0.00;0.00;;;24.90;25.10;;;;;;5032260;28;20030;-78
2021/11/16 13:03:37;;;;;;;0.00;0.00;;;24.90;25.20;;;;;;5034012;28;20029;-77
2021/11/16 13:06:14;;;;;;;0.00;0.00;;;24.60;25.20;;;;;;5034224;28;20032;-78
2021/11/16 13:08:40;;;;;;;0.00;0.00;;;24.20;25.20;;;;;;5034401;28;20029;-77
2021/11/16 13:11:06;;;;;;;0.00;0.00;;;23.80;25.40;;;;;;5034128;28;20029;-78
2021/11/16 13:13:32;;;;;;;0.00;0.00;;;23.50;25.60;;;;;;5033820;28;20463;-77
2021/11/16 13:16:03;;;;;;;0.00;0.00;;;23.30;25.70;;;;;;5034313;28;20467;-77
2021/11/16 13:18:33;;;;;;;0.00;0.00;;;23.10;25.80;;;;;;5033668;28;20029;-77
2021/11/16 13:21:07;;;;;;;0.00;0.00;;;23.00;26.00;;;;;;5032345;28;20040;-77
2021/11/16 13:23:39;;;;;;;0.00;0.00;;;22.80;26.10;;;;;;5032424;28;20034;-77
2021/11/16 13:26:08;;;;;;;0.00;0.00;;;22.60;26.20;;;;;;5031306;28;20052;-77
2021/11/16 13:31:22;;;;;;;0.00;0.00;;;22.20;26.40;;;;;;5033775;28;20056;-77
2021/11/16 13:34:03;;;;;;;0.00;0.00;;;21.90;26.50;;;;;;5032857;28;20029;-77
2021/11/16 13:36:29;;;;;;;0.00;0.00;;;21.60;26.70;;;;;;5033497;28;20109;-77
2021/11/16 13:39:05;;;;;;;0.00;0.00;;;21.30;26.90;;;;;;5033643;28;20486;-77
2021/11/16 13:41:53;;;;;;;0.00;0.00;;;21.00;27.10;;;;;;5034136;28;20034;-76
2021/11/16 13:44:19;;;;;;;0.00;0.00;;;20.60;27.70;;;;;;5012816;28;20060;-77
2021/11/16 13:46:51;;;;;;;0.00;0.00;;;20.20;27.40;;;;;;5014024;28;20091;-77
2021/11/16 13:49:21;;;;;;;0.00;0.00;;;19.70;27.60;;;;;;5013180;28;20107;-77
2021/11/16 13:51:48;;;;;;;0.00;0.00;;;19.20;27.90;;;;;;5013859;28;20368;-78
2021/11/16 13:54:13;;;;;;;0.00;0.00;;;18.70;28.20;;;;;;5033886;28;20100;-76
2021/11/16 13:56:39;;;;;;;0.00;0.00;;;18.10;28.60;;;;;;5033376;28;20033;-78
2021/11/16 13:59:15;;;;;;;0.00;0.00;;;17.50;29.00;;;;;;5033448;28;20509;-77
2021/11/16 14:01:41;;;;;;;0.00;0.00;;;16.90;29.50;;;;;;5033618;28;20127;-77
2021/11/16 14:04:13;;;;;;;0.10;0.00;;;16.20;29.90;;;;;;5033237;28;20045;-77
2021/11/16 14:06:39;;;;;;;0.00;0.00;;;15.50;30.50;;;;;;5033434;28;20159;-77
2021/11/16 14:09:24;;;;;;;0.00;0.00;;;14.90;31.10;;;;;;5033487;28;20101;-77
2021/11/16 14:11:58;;;;;;;0.00;0.00;;;14.10;32.20;;;;;;5032946;28;20021;-78
2021/11/16 14:14:27;;;;;;;0.00;0.00;;;13.50;32.80;;;;;;5033516;28;20040;-78
2021/11/16 14:16:55;;;;;;;0.00;0.00;;;12.90;33.40;;;;;;5033234;28;20026;-78
2021/11/16 14:19:22;;;;;;;0.00;0.00;;;12.30;34.10;;;;;;5032893;28;20030;-77
2021/11/16 14:21:51;;;;;;;0.00;0.00;;;11.90;34.70;;;;;;5032202;28;20029;-77
2021/11/16 14:24:32;;;;;;;0.00;0.00;;;11.50;35.50;;;;;;5033617;28;20025;-77
2021/11/16 14:26:58;;;;;;;0.00;0.00;;;11.10;36.40;;;;;;5033199;28;20030;-80
2021/11/16 14:29:24;;;;;;;0.00;0.00;;;10.80;36.50;;;;;;5033390;28;20030;-76
2021/11/16 14:31:51;;;;;;;0.00;0.00;;;10.40;37.00;;;;;;5032920;28;20029;-79
2021/11/16 14:34:20;;;;;;;0.00;0.00;;;10.20;37.60;;;;;;5032605;28;20037;-80
2021/11/16 14:36:49;;;;;;;0.00;0.00;;;10.00;38.10;;;;;;5031959;28;20032;-77
2021/11/16 14:39:17;;;;;;;0.05;0.00;;;9.70;39.10;;;;;;5033302;28;20057;-79
2021/11/16 14:41:52;;;;;;;0.00;0.00;;;9.50;38.70;;;;;;5032806;28;20040;-78
2021/11/16 14:44:21;;;;;;;0.00;0.00;;;9.40;38.50;;;;;;5032940;28;20087;-79
2021/11/16 14:46:53;;;;;;;0.05;0.05;;;9.20;39.00;;;;;;5037255;28;20395;-77
2021/11/16 14:49:24;;;;;;;0.10;0.00;;;9.10;39.80;;;;;;5036549;28;20358;-77
2021/11/16 14:51:50;;;;;;;0.00;0.00;;;9.00;40.40;;;;;;5034616;28;20060;-77
2021/11/16 14:54:16;;;;;;;0.05;0.05;;;8.90;39.90;;;;;;5035749;28;20033;-76
2021/11/16 14:56:45;;;;;;;0.10;0.00;;;8.70;40.40;;;;;;5032647;28;20108;-76
2021/11/16 14:59:16;;;;;;;0.10;0.00;;;8.60;40.30;;;;;;5030417;28;20026;-76
2021/11/16 15:01:53;;;;;;;0.00;0.00;;;8.40;41.00;;;;;;5033033;28;20029;-77
2021/11/16 15:04:28;;;;;;;0.00;0.00;;;8.40;41.60;;;;;;5034689;28;20382;-77
2021/11/16 15:07:23;;;;;;;;;;;8.20;41.00;;;;;;5035889;28;20476;-76
2021/11/16 15:09:57;;;;;;;0.00;0.00;;;8.10;40.50;;;;;;5026463;28;20247;-76
2021/11/16 15:12:23;;;;;;;0.00;0.00;;;8.00;41.60;;;;;;5031368;28;20032;-77
2021/11/16 15:14:54;;;;;;;0.00;0.00;;;7.90;42.00;;;;;;5035064;28;20034;-78
2021/11/16 15:17:22;;;;;;;0.00;0.00;;;7.80;41.90;;;;;;5035125;28;20030;-76
2021/11/16 15:20:01;;;;;;;0.00;0.00;;;7.60;42.30;;;;;;5034672;28;20481;-77
2021/11/16 15:22:33;;;;;;;0.00;0.00;;;7.60;42.20;;;;;;5033796;28;20022;-77
2021/11/16 15:25:15;;;;;;;0.00;0.00;;;7.50;42.50;;;;;;5035776;28;20431;-78
2021/11/16 15:27:56;;;;;;;0.00;0.00;;;7.40;42.30;;;;;;5035893;28;20048;-77
2021/11/16 15:30:41;;;;;;;0.00;0.00;;;7.30;41.90;;;;;;5036270;28;20079;-77
2021/11/16 15:33:16;;;;;;;0.00;0.00;;;7.30;41.70;;;;;;5030076;28;20041;-78
2021/11/16 15:35:45;;;;;;;0.00;0.00;;;7.20;42.70;;;;;;5034859;28;20042;-78
2021/11/16 15:38:14;;;;;;;0.00;0.00;;;7.10;43.30;;;;;;5016295;28;20048;-77
2021/11/16 15:41:05;;;;;;;0.00;0.00;;;7.10;43.00;;;;;;5034221;28;20021;-77
2021/11/16 15:43:48;;;;;;;0.00;0.00;;;6.90;43.70;;;;;;5033880;28;20113;-76
2021/11/16 15:49:21;;;;;;;0.00;0.00;;;6.80;43.90;;;;;;5032342;28;20117;-77
2021/11/16 15:52:20;;;;;;;0.00;0.00;;;6.70;43.40;;;;;;5033841;28;20333;-79
2021/11/16 15:57:36;;;;;;;0.00;0.00;;;6.40;42.90;;;;;;5033662;28;20399;-77
2021/11/16 16:00:20;;;;;;;0.00;0.00;;;6.30;43.90;;;;;;5032487;28;20380;-78
2021/11/16 16:02:47;;;;;;;0.10;0.00;;;6.20;44.00;;;;;;5032938;28;20085;-77
2021/11/16 16:05:25;;;;;;;0.00;0.00;;;6.20;44.60;;;;;;5035061;28;20375;-77
2021/11/16 16:08:10;;;;;;;0.00;0.00;;;6.20;44.80;;;;;;5035577;28;20034;-77
2021/11/16 16:10:38;;;;;;;0.00;0.00;;;6.10;45.60;;;;;;5035079;28;20025;-77
2021/11/16 16:13:05;;;;;;;0.00;0.00;;;6.10;45.60;;;;;;5035576;28;20095;-78
2021/11/16 16:15:37;;;;;;;0.00;0.00;;;6.00;45.40;;;;;;5035351;28;20029;-77
2021/11/16 16:18:25;;;;;;;0.13;0.13;;;6.00;45.00;;;;;;5033605;28;20038;-76
2021/11/16 16:20:52;;;;;;;0.00;0.00;;;5.90;44.90;;;;;;5034738;28;20033;-77
2021/11/16 16:23:19;;;;;;;0.03;0.03;;;5.80;44.70;;;;;;5034486;28;20084;-78
2021/11/16 16:25:47;;;;;;;0.00;0.00;;;5.70;45.60;;;;;;5034332;28;20435;-77
2021/11/16 16:28:13;;;;;;;0.00;0.00;;;5.70;45.80;;;;;;5034214;28;20033;-78
2021/11/16 16:30:40;;;;;;;0.00;0.00;;;5.60;45.50;;;;;;5032678;28;20537;-76
2021/11/16 16:33:06;;;;;;;0.00;0.00;;;5.50;46.20;;;;;;5033782;28;20467;-78
2021/11/16 16:35:32;;;;;;;0.00;0.00;;;5.40;46.30;;;;;;5033865;28;20187;-76
2021/11/16 16:37:58;;;;;;;0.00;0.00;;;5.40;46.70;;;;;;5034094;28;20100;-76
2021/11/16 16:40:24;;;;;;;0.00;0.00;;;5.40;47.30;;;;;;5033748;28;20371;-77
2021/11/16 16:42:50;;;;;;;0.00;0.00;;;5.30;47.00;;;;;;5033591;28;20383;-77
2021/11/16 16:45:17;;;;;;;0.10;0.10;;;5.30;47.30;;;;;;5033722;28;20026;-77
2021/11/16 16:47:45;;;;;;;0.10;0.10;;;5.20;47.20;;;;;;5032270;28;20367;-77
2021/11/16 16:50:11;;;;;;;0.00;0.00;;;5.20;46.90;;;;;;5033422;28;20100;-78
2021/11/16 16:52:41;;;;;;;0.00;0.00;;;5.10;46.70;;;;;;5033896;28;20021;-77
2021/11/16 16:55:08;;;;;;;0.10;0.10;;;5.00;47.30;;;;;;5030940;28;20037;-77
2021/11/16 16:57:36;;;;;;;0.00;0.00;;;4.90;46.70;;;;;;5033403;28;20116;-78
2021/11/16 17:03:24;;;;;;;0.00;0.00;;;4.70;46.90;;;;;;5034685;28;20666;-78
2021/11/16 17:05:51;;;;;;;0.00;0.00;;;4.70;47.60;;;;;;5032797;28;20364;-79
2021/11/16 17:08:17;;;;;;;0.10;0.10;;;4.70;47.90;;;;;;5013272;28;20022;-76
2021/11/16 17:10:45;;;;;;;0.00;0.00;;;4.60;47.50;;;;;;5014946;28;20026;-77
2021/11/16 17:13:13;;;;;;;0.00;0.00;;;4.60;48.10;;;;;;5014615;28;20349;-77
2021/11/16 17:15:40;;;;;;;0.10;0.10;;;4.70;48.20;;;;;;5028589;28;20029;-78
2021/11/16 17:18:07;;;;;;;0.10;0.10;;;4.60;47.90;;;;;;5034213;28;20036;-77
2021/11/16 17:20:32;;;;;;;0.10;0.10;;;4.60;47.60;;;;;;5034139;28;20483;-78
2021/11/16 17:22:58;;;;;;;0.00;0.00;;;4.60;47.50;;;;;;5033837;28;20108;-77
2021/11/16 17:25:25;;;;;;;0.00;0.00;;;4.60;47.50;;;;;;5034420;28;20376;-76
2021/11/16 17:27:51;;;;;;;0.10;0.10;;;4.60;47.40;;;;;;5033735;28;20096;-77
2021/11/16 17:30:17;;;;;;;0.00;0.00;;;4.60;47.30;;;;;;5033326;28;20037;-78
2021/11/16 17:32:43;;;;;;;0.10;0.10;;;4.50;47.30;;;;;;5019139;28;20104;-78
2021/11/16 17:35:10;;;;;;;0.00;0.00;;;4.50;47.30;;;;;;5028890;28;20122;-76
2021/11/16 17:37:36;;;;;;;0.00;0.00;;;4.40;47.40;;;;;;5030443;28;20026;-76
2021/11/16 17:40:03;;;;;;;0.00;0.00;;;4.40;47.50;;;;;;5033420;28;20029;-77
2021/11/16 17:42:29;;;;;;;0.00;0.00;;;4.30;48.30;;;;;;5033710;28;20071;-76
2021/11/16 17:44:55;;;;;;;0.00;0.00;;;4.20;48.60;;;;;;5032632;28;20426;-77
2021/11/16 17:47:21;;;;;;;0.00;0.00;;;4.10;48.40;;;;;;5033357;28;20112;-77
2021/11/16 17:49:47;;;;;;;0.10;0.10;;;4.10;48.40;;;;;;5032445;28;20031;-76
2021/11/16 17:52:12;;;;;;;0.10;0.10;;;4.00;48.30;;;;;;5020488;28;20383;-77
2021/11/16 17:54:38;;;;;;;0.00;0.00;;;4.00;48.30;;;;;;5034181;28;20037;-77
2021/11/16 17:57:04;;;;;;;0.00;0.00;;;4.00;48.30;;;;;;5026371;28;20061;-77
2021/11/16 17:59:31;;;;;;;0.00;0.00;;;4.00;48.20;;;;;;5014157;28;20140;-77
2021/11/16 18:01:57;;;;;;;0.00;0.00;;;4.00;48.30;;;;;;5028202;28;20510;-77
2021/11/16 18:04:25;;;;;;;0.00;0.00;;;4.00;49.10;;;;;;5033669;28;20063;-76
2021/11/16 18:09:19;;;;;;;0.00;0.00;;;4.00;49.00;;;;;;5033425;28;20037;-78
2021/11/16 18:11:46;;;;;;;0.10;0.10;;;4.00;48.90;;;;;;5019847;28;20058;-76
2021/11/16 18:14:12;;;;;;;0.00;0.00;;;4.00;48.80;;;;;;5013465;28;20395;-78
2021/11/16 18:16:39;;;;;;;0.00;0.00;;;4.00;48.80;;;;;;5015273;28;20034;-78
2021/11/16 18:19:05;;;;;;;0.00;0.00;;;4.00;48.80;;;;;;5032013;28;20497;-77
2021/11/16 18:21:30;;;;;;;0.00;0.00;;;4.00;48.80;;;;;;5033439;28;20065;-76
2021/11/16 18:23:58;;;;;;;0.00;0.00;;;4.00;48.80;;;;;;5033463;28;20071;-76
2021/11/16 18:26:27;;;;;;;0.00;0.00;;;4.00;48.90;;;;;;5033679;28;20379;-78
2021/11/16 18:28:54;;;;;;;0.00;0.00;;;3.90;48.90;;;;;;5032921;28;20422;-78
2021/11/16 18:31:23;;;;;;;0.00;0.00;;;3.90;48.90;;;;;;5033378;28;20383;-78
2021/11/16 18:33:51;;;;;;;0.00;0.00;;;3.90;48.90;;;;;;5033328;28;20038;-77
2021/11/16 18:36:17;;;;;;;0.00;0.00;;;3.80;49.00;;;;;;5033393;28;20025;-77
2021/11/16 18:41:51;;;;;;;0.00;0.00;;;3.60;49.20;;;;;;5033306;28;20048;-77
2021/11/16 18:46:59;;;;;;;0.05;0.05;;;3.50;49.40;;;;;;5033231;28;20028;-76
2021/11/16 18:49:26;;;;;;;0.00;0.00;;;3.40;49.50;;;;;;5032362;28;20510;-77
2021/11/16 18:51:52;;;;;;;0.10;0.10;;;3.40;50.50;;;;;;5033255;28;20374;-77
2021/11/16 18:54:22;;;;;;;0.20;0.20;;;3.30;50.90;;;;;;5032776;28;20033;-77
2021/11/16 18:57:03;;;;;;;0.10;0.10;;;3.30;50.70;;;;;;5015731;28;20030;-77
2021/11/16 18:59:30;;;;;;;0.10;0.10;;;3.20;50.50;;;;;;5031482;28;20021;-77
2021/11/16 19:01:57;;;;;;;0.08;0.08;;;3.20;50.40;;;;;;5031585;28;20485;-77
2021/11/16 19:04:24;;;;;;;0.10;0.10;;;3.20;50.30;;;;;;5031477;28;20072;-77
2021/11/16 19:06:50;;;;;;;0.00;0.00;;;3.20;50.30;;;;;;5032133;28;20057;-78
2021/11/16 19:09:17;;;;;;;0.03;0.03;;;3.20;50.40;;;;;;5031447;28;20497;-77
2021/11/16 19:11:46;;;;;;;0.32;0.10;;;3.20;50.30;;;;;;5031432;28;20021;-77
2021/11/16 19:14:23;;;;;;;0.10;0.10;;;3.20;50.40;;;;;;5032883;28;20487;-76
2021/11/16 19:17:03;;;;;;;0.10;0.10;;;3.20;50.50;;;;;;5032526;28;20116;-77
2021/11/16 19:19:32;;;;;;;0.20;0.10;;;3.10;50.40;;;;;;5031522;28;20075;-78
2021/11/16 19:22:08;;;;;;;0.10;0.10;;;3.10;50.40;;;;;;5030066;28;20021;-77
2021/11/16 19:25:00;;;;;;;0.10;0.10;;;3.10;50.50;;;;;;5032745;28;20061;-77
2021/11/16 19:27:34;;;;;;;0.10;0.10;;;3.00;50.60;;;;;;5030488;28;20022;-77
2021/11/16 19:30:00;;;;;;;0.20;0.20;;;3.00;50.60;;;;;;5030298;28;20025;-77
2021/11/16 19:32:28;;;;;;;0.10;0.10;;;2.90;50.70;;;;;;5034616;28;20025;-77
2021/11/16 19:34:55;;;;;;;0.10;0.10;;;2.90;50.70;;;;;;5034828;28;20415;-77
2021/11/16 19:37:31;;;;;;;0.25;0.25;;;3.00;50.90;;;;;;5035078;28;20030;-77
2021/11/16 19:40:03;;;;;;;0.17;0.17;;;3.00;50.90;;;;;;5033804;28;20020;-77
2021/11/16 19:42:33;;;;;;;0.10;0.10;;;3.00;50.90;;;;;;5034084;28;20049;-77
2021/11/16 19:45:02;;;;;;;0.20;0.20;;;3.00;50.90;;;;;;5034876;28;20037;-77
2021/11/16 19:47:29;;;;;;;0.13;0.13;;;3.00;51.00;;;;;;5035762;28;20048;-77
2021/11/16 19:49:56;;;;;;;0.20;0.20;;;3.10;51.00;;;;;;5034330;28;20025;-77
2021/11/16 19:52:23;;;;;;;0.10;0.10;;;3.00;50.90;;;;;;5036045;28;20032;-76
2021/11/16 19:54:49;;;;;;;0.40;0.40;;;3.10;51.00;;;;;;5035351;28;20463;-76
2021/11/16 19:57:16;;;;;;;0.50;0.50;;;3.10;51.00;;;;;;5035995;28;20029;-77
2021/11/16 20:00:28;;;;;;;0.28;0.28;;;3.00;51.00;;;;;;5030067;28;20045;-78
2021/11/16 20:02:54;;;;;;;0.00;0.00;;;3.00;51.20;;;;;;5035740;28;20033;-77
2021/11/16 20:05:20;;;;;;;0.10;0.10;;;3.00;50.90;;;;;;5035598;28;20459;-77
2021/11/16 20:07:46;;;;;;;0.00;0.00;;;3.00;50.90;;;;;;5034761;28;20487;-76
2021/11/16 20:10:15;;;;;;;0.00;0.00;;;3.00;51.00;;;;;;5035300;28;20025;-77
2021/11/16 20:12:42;;;;;;;0.10;0.10;;;3.00;51.10;;;;;;5035439;28;20030;-77
2021/11/16 20:15:18;;;;;;;0.20;0.20;;;3.00;51.10;;;;;;5034913;28;20048;-77
2021/11/16 20:17:47;;;;;;;0.05;0.05;;;2.90;51.00;;;;;;5034084;28;20041;-76
2021/11/16 20:20:14;;;;;;;0.10;0.10;;;2.90;51.20;;;;;;5035146;28;20028;-77
2021/11/16 20:22:40;;;;;;;0.00;0.00;;;2.90;51.20;;;;;;5035287;28;20032;-76